createdAt,value
2019-01-21T00:01:26.612Z,9.00
2019-01-21T00:03:53.367Z,9.10
2019-01-21T00:06:20.094Z,9.93
2019-01-21T00:08:46.541Z,9.70
2019-01-21T00:11:12.960Z,10.30
2019-01-21T00:13:39.416Z,8.97
2019-01-21T00:16:06.127Z,9.83
2019-01-21T00:18:32.545Z,9.43
2019-01-21T00:20:58.996Z,8.77
2019-01-21T00:23:25.406Z,9.80
2019-01-21T00:25:51.823Z,9.07
2019-01-21T00:28:20.075Z,9.47
2019-01-21T00:30:46.911Z,10.30
2019-01-21T00:33:13.389Z,9.33
2019-01-21T00:35:39.802Z,10.97
2019-01-21T00:38:06.214Z,9.60
2019-01-21T00:40:32.655Z,10.03
2019-01-21T00:42:59.068Z,9.40
2019-01-21T00:45:25.480Z,9.27
2019-01-21T00:47:51.928Z,9.90
2019-01-21T00:50:18.580Z,10.23
2019-01-21T00:52:44.999Z,9.93
2019-01-21T00:55:12.243Z,9.10
2019-01-21T00:57:38.784Z,9.97
2019-01-21T01:00:07.101Z,10.23
2019-01-21T01:02:33.547Z,9.03
2019-01-21T01:04:59.995Z,10.87
2019-01-21T01:07:26.407Z,9.30
2019-01-21T01:09:52.859Z,9.60
2019-01-21T01:12:19.271Z,9.40
2019-01-21T01:14:46.031Z,9.40
2019-01-21T01:17:12.772Z,9.30
2019-01-21T01:19:39.511Z,10.03
2019-01-21T01:22:06.251Z,8.80
2019-01-21T01:24:32.667Z,8.90
2019-01-21T01:26:59.117Z,8.60
2019-01-21T01:29:25.532Z,9.00
2019-01-21T01:31:51.979Z,9.33
2019-01-21T01:34:18.715Z,9.83
2019-01-21T01:36:45.455Z,9.40
2019-01-21T01:39:11.867Z,9.30
2019-01-21T01:41:38.628Z,9.67
2019-01-21T01:44:05.364Z,9.70
2019-01-21T01:46:31.775Z,9.07
2019-01-21T01:48:59.252Z,10.30
2019-01-21T01:51:25.991Z,10.00
2019-01-21T01:53:52.404Z,9.97
2019-01-21T01:56:18.852Z,9.87
2019-01-21T01:58:45.268Z,10.40
2019-01-21T02:01:11.922Z,9.40
2019-01-21T02:03:39.063Z,7.97
2019-01-21T02:06:05.471Z,10.13
2019-01-21T02:08:31.915Z,9.80
2019-01-21T02:10:58.327Z,9.97
2019-01-21T02:13:24.772Z,9.80
2019-01-21T02:15:51.547Z,10.60
2019-01-21T02:18:18.059Z,9.97
2019-01-21T02:20:44.503Z,9.67
2019-01-21T02:23:12.856Z,8.90
2019-01-21T02:25:44.018Z,9.33
2019-01-21T02:28:15.484Z,9.63
2019-01-21T02:31:00.555Z,9.73
2019-01-21T02:33:45.608Z,9.87
2019-01-21T02:36:17.063Z,9.13
2019-01-21T02:38:55.121Z,9.40
2019-01-21T02:41:23.436Z,9.80
2019-01-21T02:43:52.047Z,9.23
2019-01-21T02:46:20.396Z,10.60
2019-01-21T02:48:51.732Z,9.97
2019-01-21T02:51:38.670Z,11.13
2019-01-21T02:54:12.622Z,10.10
2019-01-21T02:56:40.973Z,10.50
2019-01-21T02:59:16.123Z,9.67
2019-01-21T03:01:50.920Z,10.17
2019-01-21T03:04:22.317Z,10.37
2019-01-21T03:06:50.671Z,10.43
2019-01-21T03:09:22.079Z,10.40
2019-01-21T03:11:50.679Z,11.00
2019-01-21T03:14:21.797Z,10.67
2019-01-21T03:16:50.406Z,9.87
2019-01-21T03:19:18.988Z,10.87
2019-01-21T03:21:50.228Z,11.80
2019-01-21T03:24:18.543Z,10.67
2019-01-21T03:27:05.146Z,10.20
2019-01-21T03:29:45.524Z,11.00
2019-01-21T03:32:16.921Z,10.20
2019-01-21T03:34:51.445Z,10.77
2019-01-21T03:37:31.815Z,11.13
2019-01-21T03:40:03.480Z,11.63
2019-01-21T03:42:34.559Z,11.60
2019-01-21T03:45:02.880Z,11.10
2019-01-21T03:47:31.228Z,11.20
2019-01-21T03:50:18.065Z,12.10
2019-01-21T03:52:49.511Z,10.93
2019-01-21T03:55:16.328Z,11.33
2019-01-21T03:57:50.581Z,11.30
2019-01-21T04:00:19.153Z,11.93
2019-01-21T04:02:47.837Z,12.23
2019-01-21T04:05:32.287Z,10.90
2019-01-21T04:08:00.609Z,11.73
2019-01-21T04:10:38.156Z,12.07
2019-01-21T04:13:09.306Z,11.10
2019-01-21T04:15:44.028Z,11.53
2019-01-21T04:18:28.793Z,11.17
2019-01-21T04:21:00.443Z,11.90
2019-01-21T04:23:34.800Z,12.37
2019-01-21T04:26:06.149Z,11.17
2019-01-21T04:28:34.459Z,11.80
2019-01-21T04:31:18.641Z,11.50
2019-01-21T04:34:01.943Z,11.20
2019-01-21T04:36:39.219Z,11.83
2019-01-21T04:39:25.881Z,11.23
2019-01-21T04:41:54.227Z,11.30
2019-01-21T04:44:22.543Z,13.33
2019-01-21T04:46:57.302Z,11.00
2019-01-21T04:49:25.915Z,11.40
2019-01-21T04:52:11.160Z,12.20
2019-01-21T04:54:39.562Z,12.83
2019-01-21T04:57:26.280Z,11.20
2019-01-21T04:59:54.595Z,11.77
2019-01-21T05:02:29.489Z,11.83
2019-01-21T05:04:58.074Z,12.50
2019-01-21T05:07:32.235Z,12.77
2019-01-21T05:10:17.243Z,13.00
2019-01-21T05:12:54.973Z,13.27
2019-01-21T05:15:35.331Z,11.97
2019-01-21T05:18:09.679Z,11.97
2019-01-21T05:20:55.920Z,12.63
2019-01-21T05:23:30.763Z,12.90
2019-01-21T05:26:02.196Z,12.80
2019-01-21T05:28:30.791Z,12.33
2019-01-21T05:30:59.464Z,11.30
2019-01-21T05:33:35.131Z,12.83
2019-01-21T05:36:06.667Z,12.37
2019-01-21T05:38:41.110Z,11.80
2019-01-21T05:41:15.495Z,12.43
2019-01-21T05:43:59.343Z,12.13
2019-01-21T05:46:27.696Z,11.90
2019-01-21T05:49:08.284Z,12.13
2019-01-21T05:51:45.663Z,12.17
2019-01-21T05:54:13.985Z,12.07
2019-01-21T05:56:42.665Z,12.57
2019-01-21T05:59:11.015Z,12.07
2019-01-21T06:01:39.595Z,12.50
2019-01-21T06:04:13.737Z,13.10
2019-01-21T06:06:44.853Z,12.23
2019-01-21T06:09:16.042Z,11.83
2019-01-21T06:11:44.360Z,11.33
2019-01-21T06:14:12.680Z,11.57
2019-01-21T06:16:50.553Z,11.80
2019-01-21T06:19:24.967Z,11.77
2019-01-21T06:22:02.436Z,12.20
2019-01-21T06:24:30.763Z,12.77
2019-01-21T06:26:59.255Z,12.53
2019-01-21T06:29:27.641Z,11.77
2019-01-21T06:31:56.276Z,12.80
2019-01-21T06:34:30.435Z,11.83
2019-01-21T06:37:15.509Z,11.43
2019-01-21T06:39:46.879Z,12.67
2019-01-21T06:42:18.261Z,12.50
2019-01-21T06:44:46.623Z,12.17
2019-01-21T06:47:26.903Z,11.47
2019-01-21T06:50:01.613Z,12.33
2019-01-21T06:52:32.723Z,11.90
2019-01-21T06:55:12.996Z,12.03
2019-01-21T06:57:53.785Z,13.23
2019-01-21T07:00:28.507Z,12.07
2019-01-21T07:02:56.824Z,12.60
2019-01-21T07:05:40.359Z,12.80
2019-01-21T07:08:25.692Z,12.80
2019-01-21T07:10:54.375Z,12.60
2019-01-21T07:13:22.695Z,11.80
2019-01-21T07:15:53.843Z,12.83
2019-01-21T07:18:26.131Z,13.00
2019-01-21T07:21:00.737Z,12.97
2019-01-21T07:23:38.284Z,12.33
2019-01-21T07:26:06.631Z,13.33
2019-01-21T07:28:37.760Z,13.00
2019-01-21T07:31:06.074Z,12.10
2019-01-21T07:33:40.907Z,12.40
2019-01-21T07:36:24.256Z,12.40
2019-01-21T07:38:58.614Z,13.23
2019-01-21T07:41:26.960Z,12.50
2019-01-21T07:44:01.048Z,11.90
2019-01-21T07:46:32.163Z,12.23
2019-01-21T07:49:06.564Z,12.63
2019-01-21T07:51:38.010Z,12.77
2019-01-21T07:54:09.392Z,13.93
2019-01-21T07:56:40.715Z,13.77
2019-01-21T07:59:20.996Z,14.70
2019-01-21T08:01:52.356Z,13.47
2019-01-21T08:04:33.224Z,14.57
2019-01-21T08:07:01.788Z,14.40
2019-01-21T08:09:46.611Z,15.53
2019-01-21T08:12:14.959Z,31.13
2019-01-21T08:14:46.363Z,15.60
2019-01-21T08:17:17.467Z,19.57
2019-01-21T08:20:02.545Z,16.70
2019-01-21T08:22:37.000Z,15.40
2019-01-21T08:25:08.089Z,15.37
2019-01-21T08:27:53.155Z,14.20
2019-01-21T08:30:21.716Z,13.60
2019-01-21T08:32:55.848Z,13.57
2019-01-21T08:35:30.252Z,14.30
2019-01-21T08:38:04.870Z,14.43
2019-01-21T08:40:42.571Z,14.70
2019-01-21T08:43:26.128Z,14.03
2019-01-21T08:46:10.872Z,13.77
2019-01-21T08:48:42.232Z,12.97
2019-01-21T08:51:20.117Z,14.77
2019-01-21T08:53:57.363Z,13.87
2019-01-21T08:56:25.681Z,12.27
2019-01-21T08:58:54.259Z,14.30
2019-01-21T09:01:28.507Z,13.40
2019-01-21T09:04:13.704Z,14.03
2019-01-21T09:06:48.066Z,12.80
2019-01-21T09:09:16.373Z,12.40
2019-01-21T09:11:47.756Z,13.83
2019-01-21T09:14:34.602Z,12.57
2019-01-21T09:17:08.575Z,13.57
2019-01-21T09:19:53.985Z,13.27
2019-01-21T09:22:22.305Z,13.30
2019-01-21T09:24:53.419Z,12.87
2019-01-21T09:27:24.772Z,13.63
2019-01-21T09:30:10.128Z,13.63
2019-01-21T09:32:38.479Z,13.20
2019-01-21T09:35:12.594Z,12.83
2019-01-21T09:37:41.079Z,12.30
2019-01-21T09:40:09.714Z,11.63
2019-01-21T09:42:41.102Z,11.90
2019-01-21T09:45:15.273Z,11.97
2019-01-21T09:47:41.586Z,12.77
2019-01-21T09:50:08.000Z,11.87
2019-01-21T09:52:34.743Z,12.60
2019-01-21T09:55:01.161Z,12.63
2019-01-21T09:57:27.917Z,12.57
2019-01-21T09:59:54.364Z,11.30
2019-01-21T10:02:22.685Z,12.53
2019-01-21T10:04:50.608Z,11.77
2019-01-21T10:07:22.348Z,12.43
2019-01-21T10:09:55.269Z,11.87
2019-01-21T10:12:37.619Z,12.30
2019-01-21T10:15:08.955Z,12.53
2019-01-21T10:17:37.304Z,11.70
2019-01-21T10:20:22.315Z,13.13
2019-01-21T10:23:00.247Z,11.60
2019-01-21T10:25:31.792Z,11.50
2019-01-21T10:28:09.028Z,11.83
2019-01-21T10:30:40.404Z,12.57
2019-01-21T10:33:08.819Z,10.97
2019-01-21T10:35:54.068Z,12.77
2019-01-21T10:38:22.751Z,11.83
2019-01-21T10:40:51.073Z,19.20
2019-01-21T10:43:19.428Z,20.70
2019-01-21T10:46:02.699Z,20.50
2019-01-21T10:48:31.321Z,20.03
2019-01-21T10:51:16.205Z,19.60
2019-01-21T10:53:50.583Z,20.00
2019-01-21T10:56:18.905Z,17.57
2019-01-21T10:59:02.572Z,18.07
2019-01-21T11:01:48.930Z,18.57
2019-01-21T11:04:17.280Z,17.27
2019-01-21T11:06:51.615Z,16.10
2019-01-21T11:09:38.519Z,15.33
2019-01-21T11:12:21.828Z,16.70
2019-01-21T11:14:50.197Z,18.27
2019-01-21T11:17:36.934Z,16.27
2019-01-21T11:20:17.601Z,17.10
2019-01-21T11:22:45.922Z,15.77
2019-01-21T11:25:14.555Z,16.70
2019-01-21T11:27:59.738Z,15.37
2019-01-21T11:30:31.051Z,14.97
2019-01-21T11:33:11.490Z,17.27
2019-01-21T11:35:58.149Z,14.77
2019-01-21T11:38:32.566Z,15.00
2019-01-21T11:41:10.107Z,14.30
2019-01-21T11:43:50.339Z,15.33
2019-01-21T11:46:24.496Z,15.17
2019-01-21T11:48:52.815Z,14.77
2019-01-21T11:51:27.146Z,14.27
2019-01-21T11:53:55.496Z,15.13
2019-01-21T11:56:23.811Z,14.73
2019-01-21T11:58:55.124Z,14.90
2019-01-21T12:01:35.888Z,13.80
2019-01-21T12:04:04.209Z,14.03
2019-01-21T12:06:32.523Z,13.87
2019-01-21T12:09:01.144Z,14.27
2019-01-21T12:11:38.920Z,13.70
2019-01-21T12:14:16.514Z,13.93
2019-01-21T12:16:53.891Z,12.97
2019-01-21T12:19:27.996Z,13.47
2019-01-21T12:21:59.671Z,12.90
2019-01-21T12:24:27.431Z,13.07
2019-01-21T12:26:59.088Z,12.77
2019-01-21T12:29:27.437Z,12.83
2019-01-21T12:32:08.231Z,14.47
2019-01-21T12:34:45.508Z,13.70
2019-01-21T12:37:16.895Z,13.50
2019-01-21T12:39:54.419Z,12.60
2019-01-21T12:42:23.044Z,12.43
2019-01-21T12:44:51.730Z,13.27
2019-01-21T12:47:25.951Z,12.97
2019-01-21T12:50:03.413Z,12.37
2019-01-21T12:52:31.763Z,12.60
2019-01-21T12:55:02.844Z,13.27
2019-01-21T12:57:47.649Z,13.60
2019-01-21T13:00:22.035Z,12.80
2019-01-21T13:02:50.618Z,15.03
2019-01-21T13:05:27.828Z,13.47
2019-01-21T13:07:56.175Z,14.00
2019-01-21T13:10:33.531Z,13.10
2019-01-21T13:13:04.880Z,13.70
2019-01-21T13:15:33.495Z,13.83
2019-01-21T13:18:01.816Z,13.00
2019-01-21T13:20:39.814Z,13.77
2019-01-21T13:23:11.559Z,13.37
2019-01-21T13:25:39.864Z,13.07
2019-01-21T13:28:17.019Z,12.27
2019-01-21T13:30:45.576Z,13.20
2019-01-21T13:33:13.936Z,13.90
2019-01-21T13:35:42.247Z,13.13
2019-01-21T13:38:10.564Z,12.57
2019-01-21T13:40:55.781Z,11.83
2019-01-21T13:43:33.271Z,11.87
2019-01-21T13:46:04.384Z,12.47
2019-01-21T13:48:32.704Z,12.00
2019-01-21T13:51:04.349Z,12.80
2019-01-21T13:53:49.207Z,12.43
2019-01-21T13:56:17.555Z,11.63
2019-01-21T13:59:02.479Z,11.40
2019-01-21T14:01:43.024Z,12.43
2019-01-21T14:04:11.341Z,12.90
2019-01-21T14:06:48.731Z,12.17
2019-01-21T14:09:17.042Z,11.73
2019-01-21T14:11:45.356Z,13.00
2019-01-21T14:14:16.464Z,12.53
2019-01-21T14:16:50.895Z,13.27
2019-01-21T14:19:19.575Z,12.20
2019-01-21T14:21:47.904Z,12.07
2019-01-21T14:24:25.459Z,13.77
2019-01-21T14:26:54.027Z,12.03
2019-01-21T14:29:22.343Z,12.40
2019-01-21T14:32:02.767Z,11.20
2019-01-21T14:34:40.458Z,11.70
2019-01-21T14:37:11.575Z,12.30
2019-01-21T14:39:42.716Z,11.27
2019-01-21T14:42:17.239Z,11.37
2019-01-21T14:45:03.975Z,11.10
2019-01-21T14:47:38.796Z,11.80
2019-01-21T14:50:10.460Z,10.67
2019-01-21T14:52:48.048Z,11.00
2019-01-21T14:55:28.849Z,11.07
2019-01-21T14:58:15.271Z,12.90
2019-01-21T15:00:52.827Z,10.87
2019-01-21T15:03:27.393Z,11.20
2019-01-21T15:05:55.809Z,10.80
2019-01-21T15:08:24.218Z,11.03
2019-01-21T15:10:55.512Z,11.00
2019-01-21T15:13:24.273Z,11.10
2019-01-21T15:15:52.649Z,10.70
2019-01-21T15:18:21.330Z,11.30
2019-01-21T15:20:57.810Z,12.13
2019-01-21T15:23:42.618Z,11.90
2019-01-21T15:26:25.921Z,11.27
2019-01-21T15:29:10.739Z,11.30
2019-01-21T15:31:42.079Z,10.60
2019-01-21T15:34:10.731Z,11.47
2019-01-21T15:36:49.012Z,11.90
2019-01-21T15:39:17.745Z,11.93
2019-01-21T15:41:49.185Z,11.57
2019-01-21T15:44:26.364Z,11.40
2019-01-21T15:46:54.736Z,10.90
2019-01-21T15:49:23.132Z,12.10
2019-01-21T15:51:51.475Z,10.37
2019-01-21T15:54:22.856Z,11.80
2019-01-21T15:56:51.176Z,10.50
2019-01-21T15:59:22.651Z,10.40
2019-01-21T16:01:59.952Z,12.30
2019-01-21T16:04:34.579Z,12.10
2019-01-21T16:07:04.200Z,12.17
2019-01-21T16:09:32.519Z,11.00
2019-01-21T16:12:13.347Z,12.07
2019-01-21T16:14:41.663Z,11.60
2019-01-21T16:17:28.327Z,11.23
2019-01-21T16:19:54.743Z,10.03
2019-01-21T16:22:35.323Z,11.80
2019-01-21T16:25:03.640Z,11.93
2019-01-21T16:27:34.967Z,12.20
2019-01-21T16:30:15.567Z,11.43
2019-01-21T16:32:43.885Z,12.50
2019-01-21T16:35:12.471Z,11.23
2019-01-21T16:37:41.156Z,12.20
2019-01-21T16:40:22.028Z,12.90
2019-01-21T16:42:48.479Z,12.47
2019-01-21T16:45:14.892Z,12.60
2019-01-21T16:47:41.636Z,13.03
2019-01-21T16:50:08.083Z,12.67
2019-01-21T16:52:34.495Z,12.63
2019-01-21T16:55:01.233Z,12.30
2019-01-21T16:57:27.652Z,12.97
2019-01-21T16:59:54.077Z,11.90
2019-01-21T17:02:20.531Z,12.80
2019-01-21T17:04:46.943Z,13.13
2019-01-21T17:07:13.364Z,12.43
2019-01-21T17:09:39.807Z,11.70
2019-01-21T17:12:06.223Z,11.93
2019-01-21T17:14:32.675Z,12.23
2019-01-21T17:16:59.535Z,12.37
2019-01-21T17:19:25.998Z,11.93
2019-01-21T17:21:52.455Z,12.67
2019-01-21T17:24:18.868Z,12.60
2019-01-21T17:26:45.276Z,13.10
2019-01-21T17:29:11.719Z,14.10
2019-01-21T17:31:38.198Z,12.93
2019-01-21T17:34:04.863Z,14.43
2019-01-21T17:36:31.307Z,13.87
2019-01-21T17:38:57.724Z,13.37
2019-01-21T17:41:24.199Z,11.70
2019-01-21T17:43:50.621Z,13.00
2019-01-21T17:46:18.444Z,13.80
2019-01-21T17:48:45.615Z,13.43
2019-01-21T17:51:12.023Z,11.30
2019-01-21T17:53:38.491Z,13.40
2019-01-21T17:56:04.907Z,13.40
2019-01-21T17:58:31.352Z,13.60
2019-01-21T18:00:58.076Z,13.57
2019-01-21T18:03:24.832Z,12.70
2019-01-21T18:05:51.556Z,14.20
2019-01-21T18:08:17.967Z,14.10
2019-01-21T18:10:44.428Z,12.53
2019-01-21T18:13:11.161Z,13.30
2019-01-21T18:15:37.571Z,13.20
2019-01-21T18:18:04.432Z,12.73
2019-01-21T18:20:30.849Z,13.37
2019-01-21T18:22:57.324Z,14.23
2019-01-21T18:25:23.771Z,13.43
2019-01-21T18:27:50.196Z,15.27
2019-01-21T18:30:20.938Z,16.40
2019-01-21T18:32:47.456Z,13.33
2019-01-21T18:35:13.875Z,13.80
2019-01-21T18:37:40.600Z,14.27
2019-01-21T18:40:09.186Z,14.60
2019-01-21T18:42:35.932Z,15.23
2019-01-21T18:45:03.683Z,14.70
2019-01-21T18:47:30.105Z,16.67
2019-01-21T18:49:56.516Z,16.73
2019-01-21T18:52:22.964Z,16.47
2019-01-21T18:54:49.375Z,22.90
2019-01-21T18:57:15.804Z,24.30
2019-01-21T18:59:42.588Z,20.57
2019-01-21T19:02:09.325Z,21.70
2019-01-21T19:04:35.793Z,19.30
2019-01-21T19:07:02.500Z,18.40
2019-01-21T19:09:28.977Z,19.83
2019-01-21T19:11:55.392Z,20.43
2019-01-21T19:14:22.105Z,21.77
2019-01-21T19:16:48.555Z,19.50
2019-01-21T19:19:14.976Z,18.40
2019-01-21T19:21:41.443Z,18.73
2019-01-21T19:24:07.854Z,19.00
2019-01-21T19:26:34.295Z,19.07
2019-01-21T19:29:00.707Z,19.87
2019-01-21T19:31:27.431Z,19.80
2019-01-21T19:33:53.903Z,18.83
2019-01-21T19:36:20.389Z,18.43
2019-01-21T19:38:46.869Z,19.83
2019-01-21T19:41:13.596Z,19.33
2019-01-21T19:43:40.007Z,19.70
2019-01-21T19:46:06.419Z,18.83
2019-01-21T19:48:32.871Z,18.53
2019-01-21T19:50:59.342Z,18.70
2019-01-21T19:53:25.747Z,18.17
2019-01-21T19:55:52.168Z,17.70
2019-01-21T19:58:18.903Z,17.97
2019-01-21T20:00:45.315Z,17.47
2019-01-21T20:03:11.728Z,17.43
2019-01-21T20:05:38.184Z,17.63
2019-01-21T20:08:04.944Z,16.87
2019-01-21T20:10:31.595Z,17.60
2019-01-21T20:12:58.008Z,17.70
2019-01-21T20:15:24.855Z,16.73
2019-01-21T20:17:51.271Z,17.33
2019-01-21T20:20:22.336Z,16.83
2019-01-21T20:22:48.788Z,15.63
2019-01-21T20:25:15.199Z,15.23
2019-01-21T20:27:41.615Z,16.83
2019-01-21T20:30:09.968Z,17.00
2019-01-21T20:32:36.637Z,16.17
2019-01-21T20:35:04.353Z,15.63
2019-01-21T20:37:31.136Z,15.37
2019-01-21T20:39:57.875Z,15.90
2019-01-21T20:42:24.356Z,15.00
2019-01-21T20:44:51.053Z,15.53
2019-01-21T20:47:17.463Z,14.53
2019-01-21T20:49:43.936Z,15.20
2019-01-21T20:52:14.092Z,16.47
2019-01-21T20:54:38.663Z,15.80
2019-01-21T20:57:05.128Z,14.50
2019-01-21T20:59:31.539Z,14.53
2019-01-21T21:01:57.988Z,14.50
2019-01-21T21:04:24.655Z,15.67
2019-01-21T21:06:51.067Z,16.53
2019-01-21T21:09:18.752Z,14.70
2019-01-21T21:11:45.167Z,18.20
2019-01-21T21:14:11.620Z,28.07
2019-01-21T21:16:38.049Z,41.10
2019-01-21T21:19:04.500Z,59.10
2019-01-21T21:21:30.916Z,53.70
2019-01-21T21:23:57.336Z,85.67
2019-01-21T21:26:23.801Z,82.47
2019-01-21T21:28:50.316Z,58.13
2019-01-21T21:31:16.764Z,80.17
2019-01-21T21:33:43.482Z,74.97
2019-01-21T21:36:09.890Z,80.13
2019-01-21T21:38:36.335Z,77.70
2019-01-21T21:41:03.843Z,78.23
2019-01-21T21:43:30.287Z,75.13
2019-01-21T21:45:56.980Z,75.67
2019-01-21T21:48:23.712Z,74.77
2019-01-21T21:50:50.555Z,70.03
2019-01-21T21:53:16.999Z,72.70
2019-01-21T21:55:43.837Z,65.97
2019-01-21T21:58:10.388Z,64.30
2019-01-21T22:00:37.108Z,62.30
2019-01-21T22:03:03.621Z,65.67
2019-01-21T22:05:30.583Z,60.77
2019-01-21T22:07:57.091Z,58.67
2019-01-21T22:10:25.506Z,54.93
2019-01-21T22:12:51.952Z,53.13
2019-01-21T22:15:19.792Z,53.50
2019-01-21T22:17:46.534Z,48.43
2019-01-21T22:20:14.682Z,48.30
2019-01-21T22:22:41.191Z,46.83
2019-01-21T22:25:08.504Z,46.60
2019-01-21T22:27:35.450Z,45.43
2019-01-21T22:30:03.811Z,44.40
2019-01-21T22:32:30.567Z,43.40
2019-01-21T22:34:56.983Z,41.43
2019-01-21T22:37:23.395Z,42.33
2019-01-21T22:39:49.844Z,43.37
2019-01-21T22:42:17.612Z,43.37
2019-01-21T22:44:44.086Z,39.40
2019-01-21T22:47:10.499Z,38.53
2019-01-21T22:49:37.216Z,36.17
2019-01-21T22:52:03.664Z,37.70
2019-01-21T22:54:30.079Z,37.20
2019-01-21T22:56:58.423Z,34.93
2019-01-21T22:59:24.835Z,32.67
2019-01-21T23:01:51.353Z,35.47
2019-01-21T23:04:17.896Z,31.97
2019-01-21T23:06:44.596Z,30.87
2019-01-21T23:09:11.011Z,29.87
2019-01-21T23:11:37.455Z,32.20
2019-01-21T23:14:04.612Z,30.90
2019-01-21T23:16:31.037Z,30.57
2019-01-21T23:18:57.480Z,30.43
2019-01-21T23:21:24.006Z,29.57
2019-01-21T23:23:50.519Z,30.97
2019-01-21T23:26:17.287Z,26.90
2019-01-21T23:28:44.398Z,28.47
2019-01-21T23:31:11.070Z,29.47
2019-01-21T23:33:37.513Z,27.90
2019-01-21T23:36:04.240Z,26.00
2019-01-21T23:38:30.688Z,26.30
2019-01-21T23:40:57.412Z,25.47
2019-01-21T23:43:24.152Z,24.17
2019-01-21T23:45:51.750Z,25.60
2019-01-21T23:48:18.554Z,23.87
2019-01-21T23:50:45.106Z,23.27
2019-01-21T23:53:11.615Z,23.40
2019-01-21T23:55:38.027Z,23.03
2019-01-21T23:58:04.900Z,20.97
